| time (UTC) | temp F | wind direction | speed MPH | gust MPH | rain 1hr in | rain 24hr in | rain mn in | humidity % | barometer mb |
| 20260508040105 | 49 | 157 | 6.0 | 12.0 | 0.00 | 0.06 | 0.00 | 74 | 1008.6 |
| 20260508034546 | 48 | 157 | 10.0 | 13.0 | 0.00 | 0.06 | 0.00 | 75 | 1008.5 |
| 20260508031522 | 49 | 157 | 10.0 | 14.0 | 0.00 | 0.06 | 0.00 | 72 | 1008.1 |
| 20260508030024 | 50 | 157 | 6.0 | 9.0 | 0.00 | 0.06 | 0.00 | 67 | 1007.9 |
| 20260508024606 | 48 | 157 | 1.0 | 5.0 | 0.00 | 0.06 | 0.00 | 59 | 1007.4 |
| 20260508023054 | 51 | 157 | 7.0 | 10.0 | 0.00 | 0.06 | 0.06 | 55 | 1007.1 |
| 20260508021539 | 53 | 157 | 10.0 | 15.0 | 0.00 | 0.06 | 0.06 | 50 | 1006.8 |
| 20260508020043 | 56 | 157 | 8.0 | 15.0 | 0.00 | 0.06 | 0.06 | 43 | 1006.5 |
| 20260508014518 | 58 | 157 | 18.0 | 31.0 | 0.00 | 0.06 | 0.06 | 38 | 1006.3 |
| 20260508013018 | 59 | 157 | 21.0 | 35.0 | 0.00 | 0.06 | 0.06 | 34 | 1006.1 |
| 20260508011603 | 60 | 157 | 19.0 | 27.0 | 0.00 | 0.06 | 0.06 | 33 | 1005.9 |
| 20260508010059 | 58 | 157 | 17.0 | 26.0 | 0.00 | 0.06 | 0.06 | 40 | 1005.4 |
| 20260508004544 | 58 | 157 | 14.0 | 29.0 | 0.00 | 0.06 | 0.06 | 42 | 1005.4 |
| 20260508003042 | 59 | 157 | 17.0 | 25.0 | 0.00 | 0.06 | 0.06 | 40 | 1005.4 |
| 20260508001524 | 59 | 157 | 7.0 | 16.0 | 0.00 | 0.06 | 0.06 | 41 | 1005.4 |
| 20260508000023 | 61 | 156 | 18.0 | 26.0 | 0.00 | 0.06 | 0.06 | 35 | 1005.3 |
| 20260507234505 | 62 | 156 | 12.0 | 17.0 | 0.00 | 0.06 | 0.06 | 36 | 1005.5 |
| 20260507233009 | 61 | 156 | 13.0 | 20.0 | 0.00 | 0.06 | 0.06 | 36 | 1005.4 |
| 20260507231547 | 61 | 156 | 12.0 | 17.0 | 0.00 | 0.06 | 0.06 | 36 | 1005.3 |
| 20260507230046 | 60 | 156 | 12.0 | 20.0 | 0.00 | 0.06 | 0.06 | 36 | 1005.3 |
| 20260507224531 | 61 | 156 | 13.0 | 24.0 | 0.00 | 0.06 | 0.06 | 33 | 1005.4 |
| 20260507223029 | 60 | 157 | 16.0 | 30.0 | 0.00 | 0.06 | 0.06 | 35 | 1005.5 |
| 20260507221510 | 61 | 157 | 9.0 | 13.0 | 0.00 | 0.06 | 0.06 | 33 | 1005.3 |
| 20260507220009 | 62 | 157 | 11.0 | 16.0 | 0.00 | 0.06 | 0.06 | 35 | 1005.4 |
| 20260507214558 | 60 | 157 | 9.0 | 17.0 | 0.00 | 0.06 | 0.06 | 36 | 1005.6 |
| 20260507213100 | 60 | 157 | 18.0 | 25.0 | 0.01 | 0.06 | 0.06 | 38 | 1005.8 |
| 20260507211530 | 60 | 157 | 18.0 | 26.0 | 0.01 | 0.06 | 0.06 | 32 | 1006.0 |
| 20260507210029 | 60 | 157 | 18.0 | 24.0 | 0.01 | 0.06 | 0.06 | 36 | 1006.4 |
| 20260507204515 | 60 | 157 | 15.0 | 22.0 | 0.01 | 0.06 | 0.06 | 38 | 1006.4 |
| 20260507203008 | 56 | 157 | 6.0 | 10.0 | 0.00 | 0.05 | 0.05 | 50 | 1006.8 |
| 20260507201550 | 53 | 157 | 16.0 | 33.0 | 0.00 | 0.05 | 0.05 | 55 | 1007.2 |
| 20260507200050 | 60 | 157 | 8.0 | 14.0 | 0.00 | 0.05 | 0.05 | 35 | 1006.7 |
| 20260507194604 | 62 | 157 | 11.0 | 19.0 | 0.00 | 0.05 | 0.05 | 32 | 1006.9 |
| 20260507193038 | 58 | 157 | 16.0 | 23.0 | 0.00 | 0.05 | 0.05 | 42 | 1007.2 |
| 20260507191535 | 60 | 157 | 17.0 | 25.0 | 0.00 | 0.05 | 0.05 | 33 | 1007.3 |
| 20260507190032 | 59 | 157 | 15.0 | 29.0 | 0.00 | 0.05 | 0.05 | 35 | 1007.4 |
| 20260507184536 | 60 | 157 | 15.0 | 23.0 | 0.00 | 0.05 | 0.05 | 36 | 1007.5 |
| 20260507183038 | 61 | 157 | 16.0 | 26.0 | 0.00 | 0.05 | 0.05 | 35 | 1007.8 |
| 20260507181526 | 59 | 157 | 19.0 | 27.0 | 0.00 | 0.05 | 0.05 | 37 | 1008.0 |
| 20260507180030 | 61 | 157 | 18.0 | 27.0 | 0.00 | 0.05 | 0.05 | 35 | 1008.2 |
| 20260507174504 | 60 | 157 | 15.0 | 24.0 | 0.00 | 0.05 | 0.05 | 37 | 1008.5 |
| 20260507173004 | 59 | 157 | 15.0 | 24.0 | 0.00 | 0.09 | 0.05 | 38 | 1008.6 |
| 20260507171549 | 59 | 157 | 17.0 | 27.0 | 0.00 | 0.09 | 0.05 | 40 | 1008.7 |
| 20260507170044 | 59 | 157 | 20.0 | 28.0 | 0.00 | 0.09 | 0.05 | 38 | 1008.7 |
| 20260507164529 | 59 | 157 | 17.0 | 26.0 | 0.00 | 0.09 | 0.05 | 47 | 1008.9 |
| 20260507163019 | 58 | 157 | 19.0 | 28.0 | 0.00 | 0.12 | 0.05 | 45 | 1009.0 |
| 20260507161606 | 57 | 157 | 16.0 | 27.0 | 0.00 | 0.12 | 0.05 | 48 | 1009.1 |
| 20260507160058 | 56 | 157 | 19.0 | 25.0 | 0.00 | 0.12 | 0.05 | 49 | 1009.3 |
| 20260507154542 | 56 | 157 | 18.0 | 26.0 | 0.00 | 0.12 | 0.05 | 48 | 1009.5 |
| 20260507153038 | 55 | 157 | 15.0 | 25.0 | 0.00 | 0.13 | 0.05 | 51 | 1009.8 |
| 20260507151513 | 54 | 156 | 13.0 | 20.0 | 0.00 | 0.13 | 0.05 | 57 | 1010.0 |
| 20260507150009 | 52 | 156 | 2.0 | 6.0 | 0.00 | 0.13 | 0.05 | 66 | 1010.4 |
| 20260507144551 | 50 | 157 | 3.0 | 6.0 | 0.00 | 0.13 | 0.05 | 67 | 1010.8 |
| 20260507143047 | 50 | 157 | 3.0 | 6.0 | 0.00 | 0.13 | 0.05 | 69 | 1011.1 |
| 20260507141524 | 49 | 157 | 4.0 | 7.0 | 0.00 | 0.13 | 0.05 | 72 | 1011.4 |
| 20260507140020 | 46 | 157 | 6.0 | 13.0 | 0.00 | 0.13 | 0.05 | 75 | 1011.7 |
| 20260507134603 | 44 | 157 | 10.0 | 13.0 | 0.00 | 0.13 | 0.05 | 80 | 1012.0 |
| 20260507133104 | 43 | 157 | 8.0 | 13.0 | 0.00 | 0.13 | 0.05 | 80 | 1012.1 |
| 20260507131538 | 41 | 157 | 7.0 | 11.0 | 0.00 | 0.13 | 0.05 | 83 | 1012.2 |
| 20260507130035 | 42 | 157 | 5.0 | 8.0 | 0.00 | 0.13 | 0.05 | 81 | 1012.3 |
| 20260507124519 | 42 | 157 | 5.0 | 7.0 | 0.00 | 0.13 | 0.05 | 83 | 1012.4 |
| 20260507123015 | 41 | 157 | 0.0 | 4.0 | 0.00 | 0.13 | 0.05 | 85 | 1012.5 |
| 20260507121601 | 41 | 157 | 4.0 | 6.0 | 0.00 | 0.13 | 0.05 | 85 | 1012.7 |
| 20260507114535 | 42 | 157 | 6.0 | 12.0 | 0.02 | 0.13 | 0.05 | 84 | 1013.0 |
| 20260507113041 | 42 | 157 | 7.0 | 11.0 | 0.02 | 0.13 | 0.05 | 84 | 1013.6 |
| 20260507111516 | 43 | 157 | 6.0 | 13.0 | 0.03 | 0.13 | 0.05 | 84 | 1013.7 |
| 20260507110015 | 43 | 157 | 12.0 | 18.0 | 0.03 | 0.12 | 0.04 | 83 | 1014.0 |
| 20260507104556 | 43 | 157 | 15.0 | 22.0 | 0.03 | 0.11 | 0.03 | 82 | 1014.5 |
| 20260507103055 | 43 | 157 | 18.0 | 31.0 | 0.03 | 0.11 | 0.03 | 81 | 1014.7 |
| 20260507101537 | 43 | 157 | 22.0 | 29.0 | 0.02 | 0.10 | 0.02 | 80 | 1014.6 |
| 20260507100038 | 45 | 157 | 26.0 | 35.0 | 0.01 | 0.09 | 0.01 | 78 | 1014.8 |
| 20260507094514 | 45 | 157 | 12.0 | 18.0 | 0.00 | 0.08 | 0.00 | 78 | 1014.4 |
| 20260507093010 | 46 | 157 | 21.0 | 33.0 | 0.00 | 0.08 | 0.00 | 73 | 1014.1 |
| 20260507091549 | 48 | 157 | 12.0 | 24.0 | 0.00 | 0.08 | 0.00 | 59 | 1014.0 |
| 20260507090050 | 44 | 157 | 7.0 | 11.0 | 0.00 | 0.08 | 0.00 | 62 | 1013.6 |
| 20260507084526 | 43 | 157 | 6.0 | 8.0 | 0.00 | 0.08 | 0.00 | 60 | 1013.2 |
| 20260507083025 | 44 | 157 | 2.0 | 6.0 | 0.00 | 0.08 | 0.00 | 58 | 1013.0 |
| 20260507081506 | 44 | 157 | 4.0 | 6.0 | 0.00 | 0.08 | 0.00 | 57 | 1012.7 |
| 20260507080100 | 47 | 157 | 4.0 | 6.0 | 0.00 | 0.08 | 0.00 | 50 | 1012.7 |
| 20260507073021 | 50 | 157 | 5.0 | 15.0 | 0.00 | 0.08 | 0.00 | 43 | 1013.8 |
| 20260507071519 | 49 | 157 | 1.0 | 4.0 | 0.00 | 0.08 | 0.00 | 44 | 1014.1 |
| 20260507070000 | 49 | 157 | 1.0 | 5.0 | 0.00 | 0.08 | 0.00 | 43 | 1014.2 |
| 20260507064613 | 49 | 157 | 2.0 | 7.0 | 0.00 | 0.08 | 0.00 | 44 | 1014.1 |
| 20260507063050 | 50 | 157 | 1.0 | 6.0 | 0.00 | 0.08 | 0.00 | 41 | 1014.2 |
| 20260507061542 | 50 | 157 | 5.0 | 9.0 | 0.00 | 0.08 | 0.00 | 41 | 1014.1 |
| 20260507060023 | 50 | 157 | 3.0 | 11.0 | 0.00 | 0.08 | 0.00 | 41 | 1014.2 |
| 20260507054522 | 49 | 157 | 4.0 | 7.0 | 0.00 | 0.08 | 0.00 | 45 | 1014.4 |
| 20260507053005 | 49 | 157 | 4.0 | 8.0 | 0.00 | 0.08 | 0.00 | 44 | 1014.6 |
| 20260507051502 | 48 | 157 | 4.0 | 7.0 | 0.00 | 0.08 | 0.00 | 45 | 1014.6 |
| 20260507050041 | 49 | 157 | 3.0 | 8.0 | 0.00 | 0.08 | 0.00 | 44 | 1015.0 |
| 20260507044540 | 50 | 157 | 6.0 | 16.0 | 0.00 | 0.08 | 0.00 | 41 | 1015.0 |
| 20260507043021 | 51 | 157 | 19.0 | 26.0 | 0.00 | 0.08 | 0.00 | 40 | 1015.0 |
| 20260507041517 | 49 | 157 | 5.0 | 11.0 | 0.00 | 0.08 | 0.00 | 42 | 1015.2 |